Time;durP1;ratioP1;P1;durP2;ratioP2;P2;SDS_P1;SDS_P2;PMS_P1;PMS_P2;Temp;Humidity;BMP_temperature;BMP_pressure;BME280_temperature;BME280_humidity;BME280_pressure;Samples;Min_cycle;Max_cycle;Signal;HPM_P1;HPM_P2
2021/11/28 00:00:32;;;;;;;7.03;5.15;;;;;;;2.49;78.71;97387.38;4990969;28;20486;-73
2021/11/28 00:03:01;;;;;;;7.15;5.70;;;;;;;2.51;78.44;97389.88;5011840;28;20038;-74
2021/11/28 00:05:27;;;;;;;6.45;5.18;;;;;;;2.49;78.99;97384.78;5001777;28;20052;-74
2021/11/28 00:10:55;;;;;;;8.32;4.72;;;;;;;2.53;78.78;97378.47;4994532;28;20033;-73
2021/11/28 00:15:54;;;;;;;6.47;4.07;;;;;;;2.57;78.39;97376.53;5009190;28;20042;-72
2021/11/28 00:18:20;;;;;;;5.72;4.55;;;;;;;2.54;78.09;97374.94;5009868;28;20217;-72
2021/11/28 00:20:45;;;;;;;10.55;4.32;;;;;;;2.53;77.80;97385.44;5000164;28;20188;-73
2021/11/28 00:23:11;;;;;;;6.15;4.60;;;;;;;2.53;77.77;97378.47;5010221;28;20121;-73
2021/11/28 00:25:37;;;;;;;6.15;4.38;;;;;;;2.51;77.69;97384.66;5009964;28;20401;-72
2021/11/28 00:28:02;;;;;;;7.15;4.60;;;;;;;2.46;78.43;97379.75;5009962;28;20508;-72
2021/11/28 00:30:29;;;;;;;6.32;5.40;;;;;;;2.49;78.40;97378.75;5013612;28;20162;-73
2021/11/28 00:32:55;;;;;;;7.57;5.40;;;;;;;2.48;78.39;97387.44;5009077;28;20513;-74
2021/11/28 00:35:21;;;;;;;6.15;4.85;;;;;;;2.50;78.31;97381.25;5008237;28;20081;-73
2021/11/28 00:37:46;;;;;;;6.47;4.78;;;;;;;2.51;78.05;97389.88;5008628;28;20137;-73
2021/11/28 00:40:14;;;;;;;9.27;5.30;;;;;;;2.48;77.94;97387.44;5012805;28;20117;-74
2021/11/28 00:42:39;;;;;;;5.78;4.95;;;;;;;2.47;77.80;97384.00;5010559;28;20038;-73
2021/11/28 00:45:06;;;;;;;6.90;5.63;;;;;;;2.51;77.75;97384.66;5013277;28;20509;-72
2021/11/28 00:47:34;;;;;;;5.45;4.03;;;;;;;2.54;77.92;97389.72;5016545;28;20408;-74
2021/11/28 00:52:35;;;;;;;7.03;5.28;;;;;;;2.55;76.88;97392.22;5013675;28;20037;-72
2021/11/28 00:55:01;;;;;;;6.97;6.00;;;;;;;2.54;77.61;97397.53;5012361;28;20044;-73
2021/11/28 00:57:27;;;;;;;5.78;4.35;;;;;;;2.55;77.56;97391.38;5011619;28;20041;-72
2021/11/28 00:59:54;;;;;;;6.35;4.88;;;;;;;2.60;77.20;97394.56;5010466;28;20042;-74
2021/11/28 01:02:22;;;;;;;5.82;5.07;;;;;;;2.61;76.83;97391.06;5010391;28;20486;-73
2021/11/28 01:04:51;;;;;;;4.75;4.03;;;;;;;2.64;76.89;97387.44;5012698;28;20034;-73
2021/11/28 01:07:16;;;;;;;4.28;3.05;;;;;;;2.70;76.63;97398.34;5013089;28;20065;-73
2021/11/28 01:09:42;;;;;;;6.28;3.95;;;;;;;2.76;76.40;97398.00;5014436;28;20477;-73
2021/11/28 01:12:08;;;;;;;5.35;4.22;;;;;;;2.80;76.01;97396.06;5017369;28;20131;-73
2021/11/28 01:14:34;;;;;;;5.97;4.82;;;;;;;2.82;76.06;97393.38;5011033;28;20049;-73
2021/11/28 01:17:00;;;;;;;6.07;4.65;;;;;;;2.84;76.06;97396.72;5002651;28;20038;-74
2021/11/28 01:19:26;;;;;;;5.40;4.60;;;;;;;2.84;76.11;97401.94;5011348;28;20243;-72
2021/11/28 01:21:53;;;;;;;5.47;4.68;;;;;;;2.83;76.04;97405.44;5010778;28;20061;-73
2021/11/28 01:24:19;;;;;;;8.18;5.63;;;;;;;2.82;75.72;97409.81;5012080;28;20061;-73
2021/11/28 01:26:44;;;;;;;6.65;4.72;;;;;;;2.84;76.33;97412.34;5010795;28;20752;-72
2021/11/28 01:29:10;;;;;;;6.40;4.35;;;;;;;2.82;76.44;97401.19;4994328;28;20383;-72
2021/11/28 01:31:35;;;;;;;5.35;4.45;;;;;;;2.83;76.17;97397.63;4992076;28;20034;-72
2021/11/28 01:34:01;;;;;;;6.68;4.85;;;;;;;2.83;76.17;97395.03;4992143;28;20034;-73
2021/11/28 01:36:26;;;;;;;4.72;3.83;;;;;;;2.84;75.72;97399.34;4990977;28;20057;-74
2021/11/28 01:38:51;;;;;;;7.55;4.47;;;;;;;2.84;75.99;97396.72;4994252;28;20493;-72
2021/11/28 01:41:17;;;;;;;5.43;4.60;;;;;;;2.78;76.45;97396.16;5011695;28;20481;-73
2021/11/28 01:43:43;;;;;;;6.40;4.95;;;;;;;2.78;76.58;97401.38;5012402;28;20072;-73
2021/11/28 01:46:08;;;;;;;6.22;4.50;;;;;;;2.81;76.73;97405.56;5011688;28;20078;-72
2021/11/28 01:48:34;;;;;;;7.63;4.85;;;;;;;2.78;77.34;97411.78;5010119;28;20121;-72
2021/11/28 01:51:02;;;;;;;9.73;6.45;;;;;;;2.77;77.33;97412.69;5011104;28;20084;-73
2021/11/28 01:53:28;;;;;;;6.38;4.82;;;;;;;2.78;77.45;97429.13;5011036;28;20042;-74
2021/11/28 01:55:54;;;;;;;7.60;5.32;;;;;;;2.78;77.60;97416.09;5014561;28;20045;-73
2021/11/28 01:58:20;;;;;;;5.47;4.35;;;;;;;2.80;77.64;97417.69;5013790;28;20413;-73
2021/11/28 02:00:51;;;;;;;5.53;4.97;;;;;;;2.81;77.59;97408.16;4988397;28;20392;-73
2021/11/28 02:03:18;;;;;;;6.07;4.53;;;;;;;2.82;77.45;97412.41;4998800;28;20041;-72
2021/11/28 02:05:48;;;;;;;5.85;4.53;;;;;;;2.80;77.66;97414.25;5010879;28;20041;-73
2021/11/28 02:08:14;;;;;;;5.20;4.63;;;;;;;2.81;77.75;97405.56;5012011;28;20034;-74
2021/11/28 02:10:39;;;;;;;5.38;4.60;;;;;;;2.85;77.65;97411.41;5010656;28;20115;-74
2021/11/28 02:13:05;;;;;;;5.10;4.13;;;;;;;2.86;78.01;97413.09;5011462;28;20045;-73
2021/11/28 02:15:31;;;;;;;5.38;4.20;;;;;;;2.84;77.72;97410.56;5011720;28;20041;-73
2021/11/28 02:17:58;;;;;;;6.38;4.85;;;;;;;2.79;77.85;97405.63;5012453;28;20041;-73
2021/11/28 02:20:29;;;;;;;5.60;4.43;;;;;;;2.84;77.90;97404.53;5028458;28;20050;-72
2021/11/28 02:22:55;;;;;;;5.72;4.03;;;;;;;2.88;78.00;97404.28;5024205;28;20069;-72
2021/11/28 02:25:24;;;;;;;5.45;4.55;;;;;;;2.91;77.73;97405.88;5011663;28;20092;-73
2021/11/28 02:27:53;;;;;;;6.00;5.32;;;;;;;2.89;77.82;97408.56;5011128;28;20413;-73
2021/11/28 02:30:19;;;;;;;5.97;4.95;;;;;;;2.86;78.31;97408.72;5010380;28;20042;-73
2021/11/28 02:32:47;;;;;;;5.38;4.28;;;;;;;2.90;78.12;97405.00;5010932;28;20100;-73
2021/11/28 02:35:14;;;;;;;6.93;4.88;;;;;;;2.90;78.19;97411.97;5010954;28;20030;-72
2021/11/28 02:37:42;;;;;;;7.00;5.18;;;;;;;2.86;78.05;97411.34;5010964;28;20041;-73
2021/11/28 02:40:10;;;;;;;4.88;3.65;;;;;;;2.87;78.37;97412.16;5010064;28;20038;-73
2021/11/28 02:42:35;;;;;;;5.97;4.65;;;;;;;2.91;78.13;97403.28;5010614;28;20061;-72
2021/11/28 02:45:00;;;;;;;6.38;4.78;;;;;;;2.90;78.03;97402.41;5010465;28;20038;-72
2021/11/28 02:47:26;;;;;;;4.53;3.47;;;;;;;2.88;77.98;97404.28;5009911;28;20065;-72
2021/11/28 02:49:51;;;;;;;5.25;4.63;;;;;;;2.89;78.06;97407.72;5014167;28;20034;-72
2021/11/28 02:52:16;;;;;;;6.22;4.53;;;;;;;2.87;78.28;97402.59;5010537;28;20026;-72
2021/11/28 02:54:42;;;;;;;4.53;3.75;;;;;;;2.94;78.44;97405.69;5010719;28;20034;-72
2021/11/28 02:57:09;;;;;;;5.07;4.22;;;;;;;2.98;78.07;97407.22;5010533;28;20037;-73
2021/11/28 02:59:35;;;;;;;4.72;4.00;;;;;;;3.04;77.97;97406.00;5009842;28;20037;-73
2021/11/28 03:02:00;;;;;;;5.50;4.57;;;;;;;3.09;77.30;97409.19;5009102;28;20041;-73
2021/11/28 03:04:25;;;;;;;5.82;4.63;;;;;;;3.07;77.22;97405.81;5011190;28;20429;-73
2021/11/28 03:06:51;;;;;;;5.65;3.63;;;;;;;3.01;76.93;97399.22;5009862;28;20513;-73
2021/11/28 03:09:16;;;;;;;4.85;4.00;;;;;;;2.95;77.87;97403.00;5007924;28;20490;-72
2021/11/28 03:11:42;;;;;;;6.90;5.00;;;;;;;2.95;78.11;97407.34;5010272;28;20063;-73
2021/11/28 03:14:07;;;;;;;6.20;4.60;;;;;;;2.87;77.84;97409.56;5009838;28;20446;-72
2021/11/28 03:16:33;;;;;;;7.53;5.43;;;;;;;2.87;78.31;97404.38;5010126;28;20048;-72
2021/11/28 03:18:58;;;;;;;8.93;6.05;;;;;;;2.87;78.40;97410.41;5008216;28;20025;-73
2021/11/28 03:21:26;;;;;;;5.40;4.00;;;;;;;2.88;78.78;97413.84;5008161;28;20041;-72
2021/11/28 03:23:55;;;;;;;5.85;4.85;;;;;;;2.91;78.16;97414.50;5010331;28;20041;-72
2021/11/28 03:26:22;;;;;;;6.15;4.80;;;;;;;2.96;78.37;97414.25;5010069;28;20397;-73
2021/11/28 03:28:53;;;;;;;7.82;5.85;;;;;;;2.88;78.80;97413.84;5013040;28;20042;-73
2021/11/28 03:31:20;;;;;;;6.20;4.82;;;;;;;2.83;78.94;97419.31;5010557;28;20041;-72
2021/11/28 03:33:46;;;;;;;6.25;4.43;;;;;;;2.85;79.04;97421.81;5009599;28;20535;-72
2021/11/28 03:36:15;;;;;;;5.88;3.40;;;;;;;2.85;79.25;97424.41;5009561;28;20026;-72
2021/11/28 03:38:42;;;;;;;5.65;4.78;;;;;;;2.85;79.36;97422.66;5007405;28;20378;-73
2021/11/28 03:41:08;;;;;;;7.15;4.72;;;;;;;2.88;79.25;97419.03;5009296;28;20069;-73
2021/11/28 03:43:35;;;;;;;4.75;3.78;;;;;;;2.88;79.70;97417.28;5009600;28;20030;-72
2021/11/28 03:46:00;;;;;;;5.10;4.00;;;;;;;2.95;79.53;97425.56;5009717;28;20052;-72
2021/11/28 03:48:26;;;;;;;13.50;5.20;;;;;;;2.96;79.16;97432.47;5012341;28;20041;-73
2021/11/28 03:50:51;;;;;;;6.07;4.43;;;;;;;2.94;79.45;97423.91;5008985;28;20073;-73
2021/11/28 03:53:16;;;;;;;5.88;4.50;;;;;;;2.96;79.34;97422.06;5009558;28;20041;-73
2021/11/28 03:55:42;;;;;;;5.68;4.32;;;;;;;2.94;79.40;97432.56;5009574;28;20100;-73
2021/11/28 03:58:08;;;;;;;6.07;4.72;;;;;;;2.93;79.21;97430.88;5009425;28;20030;-73
2021/11/28 04:00:34;;;;;;;7.22;4.63;;;;;;;2.94;79.40;97431.72;5008639;28;20382;-73
2021/11/28 04:03:02;;;;;;;13.77;5.35;;;;;;;2.96;79.41;97433.31;5008803;28;20033;-73
2021/11/28 04:05:27;;;;;;;6.50;5.13;;;;;;;2.99;79.50;97427.91;5009337;28;20042;-72
2021/11/28 04:07:53;;;;;;;8.90;5.47;;;;;;;2.99;79.37;97433.13;5009817;28;20113;-72
2021/11/28 04:10:19;;;;;;;7.40;5.10;;;;;;;2.98;79.74;97434.06;5008388;28;20038;-72
2021/11/28 04:12:44;;;;;;;6.97;4.80;;;;;;;2.97;79.68;97447.97;5009186;28;20037;-72
2021/11/28 04:15:10;;;;;;;9.95;6.18;;;;;;;2.97;79.65;97447.97;5013166;28;20092;-73
2021/11/28 04:17:36;;;;;;;6.32;4.22;;;;;;;2.95;80.10;97443.78;5013759;28;20036;-73
2021/11/28 04:20:03;;;;;;;5.97;4.63;;;;;;;2.95;80.13;97444.66;5012523;28;20034;-73
2021/11/28 04:22:29;;;;;;;7.22;4.30;;;;;;;2.91;80.62;97443.13;5013271;28;20026;-73
2021/11/28 04:24:54;;;;;;;8.10;4.57;;;;;;;2.94;80.54;97450.75;5012348;28;20402;-72
2021/11/28 04:27:19;;;;;;;9.68;4.88;;;;;;;2.94;80.60;97450.75;5013424;28;20042;-72
2021/11/28 04:29:45;;;;;;;11.95;6.30;;;;;;;2.90;81.46;97449.25;5012925;28;20095;-73
2021/11/28 04:32:10;;;;;;;9.10;5.18;;;;;;;2.92;81.24;97454.38;5013185;28;20041;-73
2021/11/28 04:34:36;;;;;;;6.88;5.15;;;;;;;2.96;81.71;97461.09;5012925;28;20044;-73
2021/11/28 04:37:01;;;;;;;7.43;4.93;;;;;;;2.98;81.29;97462.69;5011950;28;20497;-73
2021/11/28 04:39:27;;;;;;;6.63;4.75;;;;;;;2.98;81.22;97472.28;5013588;28;20038;-73
2021/11/28 04:41:52;;;;;;;7.30;5.53;;;;;;;3.01;81.51;97470.31;5013232;28;20676;-73
2021/11/28 04:44:18;;;;;;;6.40;4.63;;;;;;;2.98;81.47;97470.50;5012555;28;20075;-73
2021/11/28 04:46:43;;;;;;;11.65;8.05;;;;;;;2.99;81.21;97471.34;5013034;28;20030;-73
2021/11/28 04:49:09;;;;;;;10.20;6.13;;;;;;;2.94;81.44;97470.75;5012465;28;20629;-73
2021/11/28 04:51:34;;;;;;;8.15;6.10;;;;;;;2.97;81.64;97474.00;5012822;28;20038;-72
2021/11/28 04:54:00;;;;;;;9.23;6.10;;;;;;;2.97;81.46;97470.56;5013035;28;20029;-72
2021/11/28 04:56:26;;;;;;;9.50;6.13;;;;;;;2.91;81.85;97479.56;5013269;28;20120;-72
2021/11/28 04:58:52;;;;;;;10.95;6.60;;;;;;;2.89;82.34;97481.41;5012704;28;20026;-73
2021/11/28 05:01:18;;;;;;;14.48;6.22;;;;;;;2.90;82.51;97485.69;5014091;28;23146;-73
2021/11/28 05:03:43;;;;;;;7.25;5.18;;;;;;;2.94;82.82;97483.75;5015094;28;20434;-72
2021/11/28 05:06:09;;;;;;;9.43;5.75;;;;;;;2.98;82.08;97482.69;5015109;28;20100;-73
2021/11/28 05:08:34;;;;;;;5.97;4.72;;;;;;;3.00;81.75;97486.00;5014947;28;20073;-73
2021/11/28 05:11:00;;;;;;;8.68;5.93;;;;;;;3.00;82.09;97489.47;5018949;28;20030;-72
2021/11/28 05:13:25;;;;;;;9.25;6.45;;;;;;;3.00;81.79;97491.22;5021549;28;20034;-72
2021/11/28 05:15:50;;;;;;;6.40;4.82;;;;;;;3.05;81.99;97496.16;5013273;28;20034;-72
2021/11/28 05:18:16;;;;;;;7.75;4.93;;;;;;;3.11;81.90;97496.69;5012681;28;20065;-73
2021/11/28 05:20:41;;;;;;;9.90;6.15;;;;;;;3.13;81.28;97500.03;5011847;28;20045;-73
2021/11/28 05:23:06;;;;;;;8.52;6.60;;;;;;;3.15;81.36;97508.59;5012704;28;20037;-73
2021/11/28 05:25:32;;;;;;;10.60;7.22;;;;;;;3.19;81.15;97499.69;5010496;28;20042;-73
2021/11/28 05:27:57;;;;;;;13.02;7.32;;;;;;;3.18;80.81;97505.00;5011684;28;20034;-73
2021/11/28 05:30:23;;;;;;;11.93;8.25;;;;;;;3.15;80.43;97507.75;5013633;28;20113;-73
2021/11/28 05:32:48;;;;;;;14.27;9.18;;;;;;;3.16;80.94;97506.84;5013169;28;20430;-73
2021/11/28 05:35:13;;;;;;;17.05;9.35;;;;;;;3.19;80.50;97510.09;5011605;28;20033;-72
2021/11/28 05:37:39;;;;;;;17.52;10.45;;;;;;;3.09;80.56;97519.34;5012202;28;20042;-73
2021/11/28 05:40:05;;;;;;;14.98;8.90;;;;;;;3.09;80.92;97513.31;5012374;28;20034;-74
2021/11/28 05:42:30;;;;;;;18.02;9.63;;;;;;;3.11;80.93;97511.47;5012767;28;20041;-73
2021/11/28 05:44:55;;;;;;;22.05;9.88;;;;;;;3.13;80.91;97522.63;5012631;28;20038;-73
2021/11/28 05:47:21;;;;;;;15.93;8.15;;;;;;;3.14;81.16;97525.13;5013646;28;20034;-72
2021/11/28 05:49:47;;;;;;;17.35;9.93;;;;;;;3.11;80.91;97527.91;5011184;28;20064;-72
2021/11/28 05:52:13;;;;;;;16.73;10.20;;;;;;;3.08;81.40;97530.69;5012034;28;20512;-72
2021/11/28 05:54:38;;;;;;;14.68;10.18;;;;;;;3.06;81.52;97529.94;5012192;28;20117;-73
2021/11/28 05:57:03;;;;;;;15.60;10.60;;;;;;;3.06;81.64;97532.53;5012421;28;20105;-73
2021/11/28 05:59:29;;;;;;;20.05;11.15;;;;;;;3.02;81.46;97528.41;5014173;28;20034;-73
2021/11/28 06:01:55;;;;;;;15.60;9.88;;;;;;;3.03;81.65;97537.06;5028325;28;20045;-71
2021/11/28 06:04:21;;;;;;;18.48;12.15;;;;;;;2.98;82.00;97539.94;5025574;28;20025;-73
2021/11/28 06:06:46;;;;;;;18.88;11.20;;;;;;;2.95;81.52;97542.69;5012017;28;20408;-73
2021/11/28 06:09:12;;;;;;;19.70;11.07;;;;;;;2.94;82.06;97541.03;5011405;28;20544;-73
2021/11/28 06:11:37;;;;;;;15.00;11.02;;;;;;;2.87;82.28;97553.50;5011563;28;20045;-73
2021/11/28 06:14:03;;;;;;;16.58;9.95;;;;;;;2.83;82.57;97546.81;5011389;28;20065;-72
2021/11/28 06:16:29;;;;;;;14.52;9.18;;;;;;;2.84;82.38;97556.28;5011636;28;20032;-72
2021/11/28 06:18:54;;;;;;;13.85;9.15;;;;;;;2.83;82.63;97553.75;5010690;28;20037;-74
2021/11/28 06:21:20;;;;;;;9.32;6.80;;;;;;;2.80;82.44;97552.16;5009266;28;20045;-74
2021/11/28 06:23:45;;;;;;;8.45;5.95;;;;;;;2.80;82.75;97554.75;5010641;28;20037;-73
2021/11/28 06:26:11;;;;;;;11.38;6.60;;;;;;;2.77;82.36;97565.34;5010878;28;20140;-74
2021/11/28 06:28:36;;;;;;;8.50;6.13;;;;;;;2.76;82.63;97567.09;5009766;28;20038;-74
2021/11/28 06:31:02;;;;;;;8.85;5.85;;;;;;;2.78;82.92;97565.28;5010352;28;20038;-74
2021/11/28 06:33:28;;;;;;;10.75;7.47;;;;;;;2.81;82.42;97572.06;5011112;28;20080;-73
2021/11/28 06:35:54;;;;;;;7.53;5.55;;;;;;;2.82;82.33;97572.91;5010703;28;20038;-73
2021/11/28 06:38:19;;;;;;;7.78;5.65;;;;;;;2.82;83.03;97576.34;5008890;28;20038;-73
2021/11/28 06:40:45;;;;;;;11.23;6.50;;;;;;;2.79;82.20;97573.91;5009450;28;20030;-74
2021/11/28 06:43:11;;;;;;;9.65;6.75;;;;;;;2.80;82.49;97581.63;5009288;28;20509;-73
2021/11/28 06:45:37;;;;;;;12.38;6.07;;;;;;;2.78;82.14;97588.69;5011177;28;20038;-72
2021/11/28 06:48:03;;;;;;;11.50;6.82;;;;;;;2.81;81.87;97595.50;5010023;28;20073;-73
2021/11/28 06:50:28;;;;;;;9.82;6.72;;;;;;;2.82;81.67;97586.75;5009679;28;20030;-73
2021/11/28 06:52:53;;;;;;;8.18;6.40;;;;;;;2.82;81.65;97588.53;5010259;28;20528;-73
2021/11/28 06:55:19;;;;;;;10.57;7.35;;;;;;;2.77;81.92;97588.75;5009287;28;20083;-73
2021/11/28 06:57:44;;;;;;;11.73;8.63;;;;;;;2.65;82.40;97587.63;5010424;28;20405;-73
2021/11/28 07:00:10;;;;;;;14.10;7.50;;;;;;;2.67;82.38;97584.97;5009414;28;20077;-73
2021/11/28 07:02:36;;;;;;;11.13;8.13;;;;;;;2.66;82.70;97591.94;5008367;28;20034;-73
2021/11/28 07:05:01;;;;;;;8.55;6.90;;;;;;;2.70;82.62;97598.63;5010596;28;20030;-73
2021/11/28 07:07:27;;;;;;;12.73;7.15;;;;;;;2.74;82.62;97599.34;5010250;28;20504;-73
2021/11/28 07:09:53;;;;;;;11.27;8.10;;;;;;;2.76;82.65;97605.31;5009213;28;20504;-73
2021/11/28 07:12:19;;;;;;;13.15;8.15;;;;;;;2.75;82.65;97611.41;5008920;28;20080;-73
2021/11/28 07:14:44;;;;;;;10.43;8.10;;;;;;;2.76;82.44;97611.34;5010350;28;20061;-73
2021/11/28 07:17:09;;;;;;;14.88;7.38;;;;;;;2.80;82.59;97617.22;5010001;28;20445;-73
2021/11/28 07:19:35;;;;;;;14.80;10.15;;;;;;;2.84;81.92;97612.69;5006251;28;20034;-73
2021/11/28 07:22:01;;;;;;;20.33;10.15;;;;;;;2.80;82.11;97607.63;5010042;28;20056;-73
2021/11/28 07:24:27;;;;;;;13.50;11.23;;;;;;;2.82;82.13;97615.38;5009773;28;20030;-72
2021/11/28 07:26:52;;;;;;;11.95;8.40;;;;;;;2.85;81.67;97609.16;5010108;28;20096;-73
2021/11/28 07:29:18;;;;;;;13.30;10.38;;;;;;;2.88;81.48;97609.00;5007424;28;20461;-74
2021/11/28 07:31:44;;;;;;;13.73;9.45;;;;;;;2.90;81.45;97605.38;5009623;28;20049;-73
2021/11/28 07:34:10;;;;;;;21.27;9.10;;;;;;;2.92;80.95;97608.75;5009977;28;20112;-73
2021/11/28 07:36:36;;;;;;;12.27;8.30;;;;;;;2.93;81.11;97620.84;5009796;28;20033;-73
2021/11/28 07:39:03;;;;;;;12.85;8.93;;;;;;;2.93;81.00;97620.84;5013363;28;20084;-72
2021/11/28 07:41:28;;;;;;;16.02;10.23;;;;;;;2.95;81.07;97620.75;5009937;28;20034;-73
2021/11/28 07:43:53;;;;;;;16.15;9.93;;;;;;;2.88;80.96;97624.59;5011710;28;20040;-72
2021/11/28 07:46:19;;;;;;;18.15;12.43;;;;;;;2.80;81.67;97627.63;5009546;28;20046;-74
2021/11/28 07:48:44;;;;;;;20.88;13.40;;;;;;;2.78;81.85;97624.25;5007818;28;20124;-74
2021/11/28 07:51:10;;;;;;;16.63;11.48;;;;;;;2.70;81.44;97639.44;5009496;28;20033;-73
2021/11/28 07:53:35;;;;;;;20.83;12.88;;;;;;;2.65;81.75;97638.81;5009674;28;20033;-73
2021/11/28 07:56:00;;;;;;;18.05;12.38;;;;;;;2.57;81.73;97639.22;5010111;28;20084;-73
2021/11/28 07:58:26;;;;;;;19.52;13.23;;;;;;;2.60;81.63;97636.47;5009756;28;20080;-73
2021/11/28 08:00:51;;;;;;;17.20;11.70;;;;;;;2.65;81.62;97639.66;5008960;28;20033;-73
2021/11/28 08:03:18;;;;;;;16.05;11.20;;;;;;;2.71;81.71;97648.94;5008375;28;20042;-74
2021/11/28 08:05:43;;;;;;;19.38;13.52;;;;;;;2.74;80.66;97647.00;5008941;28;20038;-74
2021/11/28 08:08:10;;;;;;;18.33;13.63;;;;;;;2.67;80.26;97645.63;5009590;28;20037;-74
2021/11/28 08:10:36;;;;;;;20.48;13.63;;;;;;;2.63;80.27;97653.66;5008208;28;20030;-73
2021/11/28 08:13:01;;;;;;;19.98;13.32;;;;;;;2.55;80.23;97652.31;5009952;28;20053;-73
2021/11/28 08:15:27;;;;;;;19.25;12.68;;;;;;;2.62;80.81;97659.81;5009518;28;20058;-73
2021/11/28 08:17:52;;;;;;;18.58;11.35;;;;;;;2.73;80.88;97666.16;5009632;28;20113;-73
2021/11/28 08:20:18;;;;;;;16.27;10.93;;;;;;;2.79;80.21;97662.38;5008745;28;20034;-73
2021/11/28 08:22:44;;;;;;;15.55;11.13;;;;;;;2.85;79.80;97658.59;5009465;28;20030;-73
2021/11/28 08:25:12;;;;;;;18.40;12.07;;;;;;;2.92;80.04;97662.56;5009700;28;20034;-73
2021/11/28 08:27:38;;;;;;;19.85;13.82;;;;;;;2.96;79.72;97664.09;5009313;28;20433;-73
2021/11/28 08:30:11;;;;;;;21.00;15.15;;;;;;;2.95;79.64;97663.25;5009263;28;20105;-74
2021/11/28 08:32:36;;;;;;;20.60;14.45;;;;;;;3.01;79.48;97675.09;5010566;28;20116;-72
2021/11/28 08:35:02;;;;;;;20.10;12.80;;;;;;;3.09;80.19;97683.34;5010912;28;20505;-72
2021/11/28 08:37:27;;;;;;;21.40;14.73;;;;;;;3.13;79.38;97679.66;5009499;28;20607;-72
2021/11/28 08:39:53;;;;;;;19.63;14.65;;;;;;;3.14;79.87;97685.72;5009749;28;20026;-75
2021/11/28 08:42:18;;;;;;;21.85;15.27;;;;;;;3.21;79.36;97685.28;5009306;28;20060;-74
2021/11/28 08:44:44;;;;;;;27.52;15.52;;;;;;;3.21;79.42;97684.47;5010140;28;20045;-73
2021/11/28 08:47:10;;;;;;;23.95;14.95;;;;;;;3.27;79.10;97681.50;5010209;28;20038;-74
2021/11/28 08:49:35;;;;;;;25.88;16.98;;;;;;;3.19;78.12;97681.94;5010983;28;20041;-71
2021/11/28 08:52:01;;;;;;;21.92;13.52;;;;;;;3.20;78.94;97688.84;4993578;28;20036;-73
2021/11/28 08:54:30;;;;;;;23.83;16.38;;;;;;;3.19;78.35;97688.91;5011229;28;20033;-73
2021/11/28 08:56:56;;;;;;;22.10;15.32;;;;;;;3.20;78.61;97699.25;5009194;28;20038;-74
2021/11/28 08:59:21;;;;;;;21.92;15.27;;;;;;;3.22;78.93;97707.81;5010659;28;20038;-73
2021/11/28 09:01:47;;;;;;;21.35;13.85;;;;;;;3.30;78.04;97701.34;5013528;28;20378;-72
2021/11/28 09:04:12;;;;;;;22.00;17.40;;;;;;;3.28;77.72;97698.84;5013200;28;20516;-73
2021/11/28 09:06:38;;;;;;;20.58;15.18;;;;;;;3.29;78.18;97702.28;5013006;28;20058;-72
2021/11/28 09:09:04;;;;;;;22.58;15.52;;;;;;;3.27;78.60;97709.31;5011103;28;20058;-73
2021/11/28 09:11:30;;;;;;;29.27;17.30;;;;;;;3.29;78.95;97704.88;5013805;28;20033;-73
2021/11/28 09:13:56;;;;;;;21.83;15.25;;;;;;;3.28;78.82;97704.06;5013479;28;20030;-74
2021/11/28 09:16:21;;;;;;;20.25;14.02;;;;;;;3.34;79.20;97710.69;5012706;28;20037;-73
2021/11/28 09:18:58;;;;;;;19.77;13.63;;;;;;;3.34;78.44;97710.69;5011422;28;20037;-74
2021/11/28 09:21:23;;;;;;;17.15;12.02;;;;;;;3.39;78.89;97713.88;5013139;28;20397;-72
2021/11/28 09:26:34;;;;;;;19.75;12.77;;;;;;;3.35;77.83;97717.59;5013405;28;20065;-73
2021/11/28 09:29:01;;;;;;;20.58;14.43;;;;;;;3.39;78.08;97717.31;5009605;28;20042;-72
2021/11/28 09:31:29;;;;;;;22.00;15.93;;;;;;;3.46;78.51;97720.44;5021387;28;20050;-73
2021/11/28 09:33:55;;;;;;;20.80;15.63;;;;;;;3.52;78.27;97720.13;5025679;28;20050;-73
2021/11/28 09:36:20;;;;;;;17.15;13.63;;;;;;;3.63;77.99;97722.97;5012950;28;20041;-71
2021/11/28 09:38:46;;;;;;;22.83;15.15;;;;;;;3.64;77.54;97722.06;5014707;28;20033;-73
2021/11/28 09:41:12;;;;;;;20.90;14.90;;;;;;;3.74;76.56;97725.03;5009912;28;20096;-73
2021/11/28 09:43:43;;;;;;;84.78;51.38;;;;;;;3.75;77.30;97723.25;5012256;28;20034;-72
2021/11/28 09:46:09;;;;;;;23.27;16.90;;;;;;;3.82;77.09;97716.78;5011745;28;20421;-73
2021/11/28 09:48:36;;;;;;;19.27;14.30;;;;;;;3.86;76.65;97719.13;5011249;28;20480;-74
2021/11/28 09:51:03;;;;;;;21.60;15.55;;;;;;;3.86;76.46;97713.91;5011640;28;20401;-72
2021/11/28 09:53:32;;;;;;;17.08;12.55;;;;;;;3.94;76.53;97715.22;5011476;28;20080;-72
2021/11/28 09:55:58;;;;;;;21.38;14.82;;;;;;;3.95;77.16;97722.97;5011312;28;20122;-73
2021/11/28 09:58:23;;;;;;;20.85;14.40;;;;;;;3.96;77.10;97729.03;5011424;28;20048;-74
2021/11/28 10:00:48;;;;;;;21.85;16.05;;;;;;;3.89;76.08;97715.50;4993171;28;20026;-73
2021/11/28 10:03:14;;;;;;;20.08;14.13;;;;;;;3.87;76.56;97725.19;5011675;28;20040;-74
2021/11/28 10:05:41;;;;;;;20.50;15.18;;;;;;;3.82;76.19;97733.25;5011976;28;20030;-73
2021/11/28 10:08:07;;;;;;;17.50;12.25;;;;;;;3.81;76.55;97725.50;5012125;28;20034;-73
2021/11/28 10:10:34;;;;;;;19.23;14.75;;;;;;;3.93;76.54;97724.81;5010730;28;20042;-72
2021/11/28 10:13:00;;;;;;;17.90;13.70;;;;;;;4.02;75.78;97728.69;5011319;28;20401;-73
2021/11/28 10:15:28;;;;;;;17.77;14.07;;;;;;;4.13;75.52;97725.47;5011495;28;20038;-73
2021/11/28 10:17:54;;;;;;;21.55;13.90;;;;;;;4.01;75.70;97727.88;5010076;28;20098;-74
2021/11/28 10:20:22;;;;;;;19.25;15.02;;;;;;;3.98;73.92;97727.19;5010905;28;20034;-72
2021/11/28 10:22:50;;;;;;;19.38;13.75;;;;;;;4.05;74.94;97724.16;5011284;28;20034;-72
2021/11/28 10:25:23;;;;;;;24.23;17.63;;;;;;;4.13;74.51;97715.06;5011046;28;20045;-73
2021/11/28 10:27:57;;;;;;;20.40;14.48;;;;;;;4.17;74.53;97722.63;5011218;28;20041;-74
2021/11/28 10:30:28;;;;;;;18.30;12.57;;;;;;;4.33;73.87;97725.19;5008940;28;20061;-74
2021/11/28 10:32:55;;;;;;;18.30;13.52;;;;;;;4.30;72.87;97728.81;5011288;28;20034;-73
2021/11/28 10:35:22;;;;;;;20.40;14.35;;;;;;;4.19;73.22;97722.53;5009274;28;20044;-73
2021/11/28 10:37:52;;;;;;;17.02;12.70;;;;;;;4.18;72.73;97731.28;5009649;28;20117;-74
2021/11/28 10:40:23;;;;;;;20.38;15.25;;;;;;;4.06;72.97;97725.84;5008632;28;20085;-74
2021/11/28 10:42:51;;;;;;;19.10;15.43;;;;;;;4.05;73.60;97723.31;5010797;28;20030;-73
2021/11/28 10:45:22;;;;;;;18.10;15.05;;;;;;;4.15;73.71;97726.25;5011536;28;20160;-73
2021/11/28 10:47:56;;;;;;;20.65;13.90;;;;;;;4.30;74.22;97725.38;5010891;28;20034;-73
2021/11/28 10:50:29;;;;;;;25.30;15.57;;;;;;;4.36;73.10;97727.63;5010041;28;20130;-74
2021/11/28 10:53:08;;;;;;;19.45;13.07;;;;;;;4.44;73.98;97725.41;5011081;28;20030;-75
2021/11/28 10:55:38;;;;;;;21.95;15.38;;;;;;;4.48;73.48;97726.09;5010734;28;20049;-73
2021/11/28 10:58:20;;;;;;;20.23;14.73;;;;;;;4.49;73.36;97733.00;5011496;28;20553;-73
2021/11/28 11:00:45;;;;;;;23.80;15.98;;;;;;;4.46;73.13;97728.78;5010761;28;20037;-72
2021/11/28 11:03:19;;;;;;;20.88;14.63;;;;;;;4.51;72.15;97731.97;5011576;28;20084;-72
2021/11/28 11:05:46;;;;;;;24.95;15.32;;;;;;;4.53;72.03;97729.28;5010895;28;20042;-75
2021/11/28 11:08:15;;;;;;;23.17;15.98;;;;;;;4.52;71.95;97730.19;5010795;28;20038;-73
2021/11/28 11:10:42;;;;;;;21.70;14.88;;;;;;;4.56;71.88;97736.94;5010437;28;20065;-73
2021/11/28 11:13:12;;;;;;;26.98;18.88;;;;;;;4.46;71.68;97735.78;5011631;28;20034;-73
2021/11/28 11:15:45;;;;;;;22.67;17.13;;;;;;;4.46;72.37;97734.00;5010707;28;20034;-74
2021/11/28 11:18:21;;;;;;;19.60;14.40;;;;;;;4.50;71.96;97727.69;5010304;28;20079;-73
2021/11/28 11:21:03;;;;;;;28.40;16.60;;;;;;;4.60;72.19;97733.19;5007437;28;20038;-73
2021/11/28 11:23:42;;;;;;;23.60;16.85;;;;;;;4.78;72.67;97722.63;5009351;28;20065;-73
2021/11/28 11:26:11;;;;;;;27.85;18.63;;;;;;;4.79;70.52;97729.53;5010295;28;20041;-73
2021/11/28 11:29:11;;;;;;;30.30;17.20;;;;;;;4.73;71.13;97728.13;5002949;28;20386;-75
2021/11/28 11:31:39;;;;;;;24.23;17.77;;;;;;;4.77;69.43;97723.53;4989771;28;20055;-72
2021/11/28 11:34:26;;;;;;;25.20;17.73;;;;;;;4.76;69.66;97722.72;4990156;28;20030;-73
2021/11/28 11:36:54;;;;;;;24.58;17.55;;;;;;;4.73;69.92;97728.13;4990230;28;20502;-74
2021/11/28 11:39:20;;;;;;;23.35;15.63;;;;;;;4.80;71.05;97725.97;4989972;28;20188;-73
2021/11/28 11:41:45;;;;;;;25.08;17.02;;;;;;;4.88;71.23;97724.59;4999185;28;20044;-73